LFAT/LTQ METAR and TAF weather

Enter ICAO airport designator
Station Type Date Time Source
LFAT METAR 2022/01/26 19:30 UTC NOAA

LFAT 261930Z AUTO 24007KT 210V280 9999 OVC023 07/02 Q1032


Station Type Date Time Source
LFAT Decoded METAR 2022/01/26 19:30 UTC NOAA

Le Touquet, France (LFAT) 50-31N 001-37E 14M
Jan 26, 2022 - 02:30 PM EST / 2022.01.26 1930 UTC
Wind: from the WSW (240 degrees) at 8 MPH (7 KT) (direction variable):0
Visibility: greater than 7 mile(s):0
Sky conditions: overcast
Temperature: 44 F (7 C)
Dew Point: 35 F (2 C)
Relative Humidity: 70%
Pressure (altimeter): 30.47 in. Hg (1032 hPa)
ob: LFAT 261930Z AUTO 24007KT 210V280 9999 OVC023 07/02 Q1032
cycle: 19

Station Type Date Time Source
LFAT TAF 2018/07/14 09:21 UTC NOAA

TAF TAF LFAT 140800Z 1409/1421 09004KT 8000 NSC
BECMG 1409/1411 30010KT

Example: see airport list